Miller Field
KVTN : rendu visible

Aérodrome :











RETROUVEZ-NOUS SUR...

 
LOGIN :

S'inscrire | Disclaimer

   EN    FR    IT 

 









Légende :    VFR   VFR Marginal   IFR   IFR Intensif   IFR Très Intensif
Visi : 
Plafond : 
>= 8 km
>= 3000ft
5 à 8 km
1000 à 3000 ft
1500m à 5 km
500 à 1000 ft
800 à 1500m
200 à 500 ft
< 800m
< 200 ft
Symboles :   Orages  Brouillard  Fortes neiges  Fortes précipitations  Vent > 20 kt






- Altitude de l'aérodrome : 2596 ft


KVTN - Miller Field

DERNIER METAR :
  • 231052Z AUTO 29010KT 10SM CLR M01/M05 A2995 RMK AO2 SLP149 T10111050

METARs EXPIRÉS :
  • 230952Z AUTO 26009KT 10SM CLR M02/M06 A2994 RMK AO2 SLP148 T10171056
  • 230852Z AUTO 26005KT 10SM CLR 00/M05 A2994 RMK AO2 SLP146 T00001050 53006

TAF KVTN
Valide du 23 à 06h jusqu'au 24 à 06h UTC


230520Z 2306/2406 27006KT P6SM SCT250
FM231600 36007KT P6SM BKN220
FM240000 06005KT P6SM SKC



MET'MAP, la Météo Aéronautique d'un coup d'oeil ! - Copyright ORBIFLY Décembre 2007 - Disclaimer

ORBIFLY MET'MAP TEAM :

Programmation & Développement : Alexandra Zaïnal
Sur une idée originale de : Baudouin d'Aumeries
Assistance à la programmation : Marc-Olivier Méhu
Soutien technique & logistique : Manuel Goepfert

Contact : metmap@orbifly.com




SOURCES & CREDITS :

   NOAA       Earth
Advisory